sensor_id;sensor_type;location;lat;lon;timestamp;P1;durP1;ratioP1;P2;durP2;ratioP2
85640;SDS011;76065;47.182;27.506;2024-03-06T00:01:44;57.67;;;28.20;;
85640;SDS011;76065;47.182;27.506;2024-03-06T00:04:09;65.35;;;30.48;;
85640;SDS011;76065;47.182;27.506;2024-03-06T00:06:35;58.83;;;28.65;;
85640;SDS011;76065;47.182;27.506;2024-03-06T00:09:01;58.53;;;29.25;;
85640;SDS011;76065;47.182;27.506;2024-03-06T00:11:30;59.15;;;26.85;;
85640;SDS011;76065;47.182;27.506;2024-03-06T00:13:55;62.03;;;27.27;;
85640;SDS011;76065;47.182;27.506;2024-03-06T00:16:21;58.40;;;27.40;;
85640;SDS011;76065;47.182;27.506;2024-03-06T00:18:46;50.67;;;24.25;;
85640;SDS011;76065;47.182;27.506;2024-03-06T00:21:12;59.70;;;27.73;;
85640;SDS011;76065;47.182;27.506;2024-03-06T00:23:38;60.70;;;26.92;;
85640;SDS011;76065;47.182;27.506;2024-03-06T00:26:03;62.25;;;29.30;;
85640;SDS011;76065;47.182;27.506;2024-03-06T00:28:29;59.13;;;26.48;;
85640;SDS011;76065;47.182;27.506;2024-03-06T00:30:55;56.67;;;29.55;;
85640;SDS011;76065;47.182;27.506;2024-03-06T00:33:21;58.75;;;25.17;;
85640;SDS011;76065;47.182;27.506;2024-03-06T00:35:48;53.13;;;26.13;;
85640;SDS011;76065;47.182;27.506;2024-03-06T00:38:14;52.15;;;26.63;;
85640;SDS011;76065;47.182;27.506;2024-03-06T00:40:39;60.50;;;28.17;;
85640;SDS011;76065;47.182;27.506;2024-03-06T00:43:05;50.47;;;25.33;;
85640;SDS011;76065;47.182;27.506;2024-03-06T00:45:31;52.60;;;26.05;;
85640;SDS011;76065;47.182;27.506;2024-03-06T00:47:56;52.35;;;25.15;;
85640;SDS011;76065;47.182;27.506;2024-03-06T00:50:22;61.63;;;28.88;;
85640;SDS011;76065;47.182;27.506;2024-03-06T00:52:48;63.58;;;29.13;;
85640;SDS011;76065;47.182;27.506;2024-03-06T00:55:14;52.00;;;24.42;;
85640;SDS011;76065;47.182;27.506;2024-03-06T00:57:40;49.67;;;24.45;;
85640;SDS011;76065;47.182;27.506;2024-03-06T01:00:06;58.20;;;25.50;;
85640;SDS011;76065;47.182;27.506;2024-03-06T01:02:38;51.33;;;24.05;;
85640;SDS011;76065;47.182;27.506;2024-03-06T01:05:04;57.97;;;24.33;;
85640;SDS011;76065;47.182;27.506;2024-03-06T01:07:30;51.08;;;24.40;;
85640;SDS011;76065;47.182;27.506;2024-03-06T01:09:56;51.22;;;24.48;;
85640;SDS011;76065;47.182;27.506;2024-03-06T01:12:26;61.50;;;25.73;;
85640;SDS011;76065;47.182;27.506;2024-03-06T01:14:51;49.85;;;23.92;;
85640;SDS011;76065;47.182;27.506;2024-03-06T01:17:17;51.13;;;24.50;;
85640;SDS011;76065;47.182;27.506;2024-03-06T01:19:42;50.30;;;22.92;;
85640;SDS011;76065;47.182;27.506;2024-03-06T01:22:10;50.22;;;24.65;;
85640;SDS011;76065;47.182;27.506;2024-03-06T01:24:38;49.47;;;22.92;;
85640;SDS011;76065;47.182;27.506;2024-03-06T01:27:04;50.03;;;24.58;;
85640;SDS011;76065;47.182;27.506;2024-03-06T01:29:29;54.92;;;24.25;;
85640;SDS011;76065;47.182;27.506;2024-03-06T01:31:55;54.38;;;25.92;;
85640;SDS011;76065;47.182;27.506;2024-03-06T01:34:20;58.67;;;26.00;;
85640;SDS011;76065;47.182;27.506;2024-03-06T01:36:47;50.83;;;22.95;;
85640;SDS011;76065;47.182;27.506;2024-03-06T01:39:13;48.75;;;21.35;;
85640;SDS011;76065;47.182;27.506;2024-03-06T01:41:44;54.88;;;24.23;;
85640;SDS011;76065;47.182;27.506;2024-03-06T01:44:16;57.58;;;27.50;;
85640;SDS011;76065;47.182;27.506;2024-03-06T01:46:43;51.55;;;24.58;;
85640;SDS011;76065;47.182;27.506;2024-03-06T01:49:12;59.20;;;25.25;;
85640;SDS011;76065;47.182;27.506;2024-03-06T01:51:45;66.03;;;28.70;;
85640;SDS011;76065;47.182;27.506;2024-03-06T01:56:43;59.13;;;27.70;;
85640;SDS011;76065;47.182;27.506;2024-03-06T01:59:11;58.70;;;28.17;;
85640;SDS011;76065;47.182;27.506;2024-03-06T02:01:44;55.25;;;25.92;;
85640;SDS011;76065;47.182;27.506;2024-03-06T02:04:11;59.75;;;28.85;;
85640;SDS011;76065;47.182;27.506;2024-03-06T02:06:40;65.65;;;30.60;;
85640;SDS011;76065;47.182;27.506;2024-03-06T02:09:07;66.18;;;31.27;;
85640;SDS011;76065;47.182;27.506;2024-03-06T02:11:34;59.67;;;29.58;;
85640;SDS011;76065;47.182;27.506;2024-03-06T02:14:01;57.03;;;28.13;;
85640;SDS011;76065;47.182;27.506;2024-03-06T02:16:28;63.33;;;29.02;;
85640;SDS011;76065;47.182;27.506;2024-03-06T02:18:53;57.17;;;28.08;;
85640;SDS011;76065;47.182;27.506;2024-03-06T02:21:21;59.15;;;28.80;;
85640;SDS011;76065;47.182;27.506;2024-03-06T02:23:47;62.38;;;31.00;;
85640;SDS011;76065;47.182;27.506;2024-03-06T02:26:12;58.63;;;28.27;;
85640;SDS011;76065;47.182;27.506;2024-03-06T02:28:38;57.05;;;29.80;;
85640;SDS011;76065;47.182;27.506;2024-03-06T02:31:04;63.33;;;29.33;;
85640;SDS011;76065;47.182;27.506;2024-03-06T02:33:32;60.85;;;27.95;;
85640;SDS011;76065;47.182;27.506;2024-03-06T02:35:59;56.22;;;26.58;;
85640;SDS011;76065;47.182;27.506;2024-03-06T02:38:25;49.47;;;25.77;;
85640;SDS011;76065;47.182;27.506;2024-03-06T02:40:50;54.20;;;26.45;;
85640;SDS011;76065;47.182;27.506;2024-03-06T02:43:16;60.50;;;28.15;;
85640;SDS011;76065;47.182;27.506;2024-03-06T02:45:41;57.67;;;28.52;;
85640;SDS011;76065;47.182;27.506;2024-03-06T02:48:07;67.15;;;27.60;;
85640;SDS011;76065;47.182;27.506;2024-03-06T02:50:33;56.70;;;26.65;;
85640;SDS011;76065;47.182;27.506;2024-03-06T02:52:58;62.33;;;27.38;;
85640;SDS011;76065;47.182;27.506;2024-03-06T02:55:24;52.28;;;26.13;;
85640;SDS011;76065;47.182;27.506;2024-03-06T02:57:50;55.15;;;25.77;;
85640;SDS011;76065;47.182;27.506;2024-03-06T03:00:15;52.80;;;26.40;;
85640;SDS011;76065;47.182;27.506;2024-03-06T03:02:41;58.50;;;26.90;;
85640;SDS011;76065;47.182;27.506;2024-03-06T03:05:07;53.05;;;25.50;;
85640;SDS011;76065;47.182;27.506;2024-03-06T03:07:33;50.80;;;25.45;;
85640;SDS011;76065;47.182;27.506;2024-03-06T03:09:59;58.97;;;25.70;;
85640;SDS011;76065;47.182;27.506;2024-03-06T03:12:25;49.28;;;25.25;;
85640;SDS011;76065;47.182;27.506;2024-03-06T03:14:50;58.05;;;26.35;;
85640;SDS011;76065;47.182;27.506;2024-03-06T03:17:17;54.75;;;26.23;;
85640;SDS011;76065;47.182;27.506;2024-03-06T03:19:44;52.15;;;25.25;;
85640;SDS011;76065;47.182;27.506;2024-03-06T03:22:10;56.00;;;24.98;;
85640;SDS011;76065;47.182;27.506;2024-03-06T03:24:36;54.10;;;26.73;;
85640;SDS011;76065;47.182;27.506;2024-03-06T03:27:04;57.22;;;28.42;;
85640;SDS011;76065;47.182;27.506;2024-03-06T03:29:30;55.15;;;26.52;;
85640;SDS011;76065;47.182;27.506;2024-03-06T03:31:55;59.25;;;30.00;;
85640;SDS011;76065;47.182;27.506;2024-03-06T03:34:22;59.38;;;26.90;;
85640;SDS011;76065;47.182;27.506;2024-03-06T03:36:48;55.97;;;27.65;;
85640;SDS011;76065;47.182;27.506;2024-03-06T03:39:14;58.33;;;27.85;;
85640;SDS011;76065;47.182;27.506;2024-03-06T03:41:42;56.20;;;26.45;;
85640;SDS011;76065;47.182;27.506;2024-03-06T03:44:10;54.55;;;27.52;;
85640;SDS011;76065;47.182;27.506;2024-03-06T03:46:35;60.47;;;26.15;;
85640;SDS011;76065;47.182;27.506;2024-03-06T03:49:01;50.60;;;26.60;;
85640;SDS011;76065;47.182;27.506;2024-03-06T03:51:27;62.10;;;27.80;;
85640;SDS011;76065;47.182;27.506;2024-03-06T03:53:52;51.35;;;24.63;;
85640;SDS011;76065;47.182;27.506;2024-03-06T03:56:18;59.22;;;27.58;;
85640;SDS011;76065;47.182;27.506;2024-03-06T03:58:43;51.13;;;27.65;;
85640;SDS011;76065;47.182;27.506;2024-03-06T04:01:10;48.85;;;25.98;;
85640;SDS011;76065;47.182;27.506;2024-03-06T04:03:36;63.47;;;25.05;;
85640;SDS011;76065;47.182;27.506;2024-03-06T04:06:02;59.15;;;26.65;;
85640;SDS011;76065;47.182;27.506;2024-03-06T04:08:27;61.28;;;26.98;;
85640;SDS011;76065;47.182;27.506;2024-03-06T04:10:53;57.92;;;27.33;;
85640;SDS011;76065;47.182;27.506;2024-03-06T04:13:19;54.47;;;25.58;;
85640;SDS011;76065;47.182;27.506;2024-03-06T04:15:45;52.25;;;26.67;;
85640;SDS011;76065;47.182;27.506;2024-03-06T04:18:11;52.75;;;24.45;;
85640;SDS011;76065;47.182;27.506;2024-03-06T04:20:37;59.03;;;28.92;;
85640;SDS011;76065;47.182;27.506;2024-03-06T04:23:02;51.15;;;26.42;;
85640;SDS011;76065;47.182;27.506;2024-03-06T04:25:28;51.45;;;25.55;;
85640;SDS011;76065;47.182;27.506;2024-03-06T04:27:54;48.83;;;25.17;;
85640;SDS011;76065;47.182;27.506;2024-03-06T04:30:19;55.35;;;25.92;;
85640;SDS011;76065;47.182;27.506;2024-03-06T04:32:46;56.25;;;27.75;;
85640;SDS011;76065;47.182;27.506;2024-03-06T04:35:11;55.90;;;27.20;;
85640;SDS011;76065;47.182;27.506;2024-03-06T04:37:37;49.53;;;25.00;;
85640;SDS011;76065;47.182;27.506;2024-03-06T04:40:03;53.85;;;25.65;;
85640;SDS011;76065;47.182;27.506;2024-03-06T04:42:33;55.20;;;27.40;;
85640;SDS011;76065;47.182;27.506;2024-03-06T04:45:11;53.63;;;26.02;;
85640;SDS011;76065;47.182;27.506;2024-03-06T04:47:37;56.50;;;26.55;;
85640;SDS011;76065;47.182;27.506;2024-03-06T04:50:03;68.63;;;28.05;;
85640;SDS011;76065;47.182;27.506;2024-03-06T04:52:33;65.28;;;28.40;;
85640;SDS011;76065;47.182;27.506;2024-03-06T04:55:00;72.63;;;31.67;;
85640;SDS011;76065;47.182;27.506;2024-03-06T04:57:25;61.28;;;29.75;;
85640;SDS011;76065;47.182;27.506;2024-03-06T04:59:53;65.90;;;28.92;;
85640;SDS011;76065;47.182;27.506;2024-03-06T05:02:18;64.00;;;27.67;;
85640;SDS011;76065;47.182;27.506;2024-03-06T05:04:44;62.83;;;28.70;;
85640;SDS011;76065;47.182;27.506;2024-03-06T05:07:09;61.67;;;32.13;;
85640;SDS011;76065;47.182;27.506;2024-03-06T05:09:35;61.10;;;28.85;;
85640;SDS011;76065;47.182;27.506;2024-03-06T05:12:01;58.92;;;28.95;;
85640;SDS011;76065;47.182;27.506;2024-03-06T05:14:26;48.33;;;26.42;;
85640;SDS011;76065;47.182;27.506;2024-03-06T05:16:52;54.65;;;28.23;;
85640;SDS011;76065;47.182;27.506;2024-03-06T05:19:18;54.92;;;25.63;;
85640;SDS011;76065;47.182;27.506;2024-03-06T05:21:45;51.45;;;26.73;;
85640;SDS011;76065;47.182;27.506;2024-03-06T05:24:10;55.55;;;27.35;;
85640;SDS011;76065;47.182;27.506;2024-03-06T05:26:36;57.17;;;27.98;;
85640;SDS011;76065;47.182;27.506;2024-03-06T05:29:01;63.30;;;28.92;;
85640;SDS011;76065;47.182;27.506;2024-03-06T05:31:28;58.92;;;30.77;;
85640;SDS011;76065;47.182;27.506;2024-03-06T05:33:53;54.75;;;27.20;;
85640;SDS011;76065;47.182;27.506;2024-03-06T05:36:19;49.63;;;23.63;;
85640;SDS011;76065;47.182;27.506;2024-03-06T05:38:45;61.67;;;27.27;;
85640;SDS011;76065;47.182;27.506;2024-03-06T05:41:10;49.85;;;25.02;;
85640;SDS011;76065;47.182;27.506;2024-03-06T05:43:36;53.38;;;26.20;;
85640;SDS011;76065;47.182;27.506;2024-03-06T05:46:02;63.22;;;29.20;;
85640;SDS011;76065;47.182;27.506;2024-03-06T05:48:27;60.40;;;29.27;;
85640;SDS011;76065;47.182;27.506;2024-03-06T05:50:53;54.97;;;28.13;;
85640;SDS011;76065;47.182;27.506;2024-03-06T05:53:19;62.92;;;30.75;;
85640;SDS011;76065;47.182;27.506;2024-03-06T05:55:44;64.45;;;32.20;;
85640;SDS011;76065;47.182;27.506;2024-03-06T05:58:11;65.80;;;30.80;;
85640;SDS011;76065;47.182;27.506;2024-03-06T06:00:36;65.25;;;31.05;;
85640;SDS011;76065;47.182;27.506;2024-03-06T06:03:03;54.70;;;28.02;;
85640;SDS011;76065;47.182;27.506;2024-03-06T06:05:28;54.65;;;25.77;;
85640;SDS011;76065;47.182;27.506;2024-03-06T06:07:54;51.38;;;26.52;;
85640;SDS011;76065;47.182;27.506;2024-03-06T06:10:19;51.42;;;25.33;;
85640;SDS011;76065;47.182;27.506;2024-03-06T06:12:45;52.35;;;26.42;;
85640;SDS011;76065;47.182;27.506;2024-03-06T06:15:10;48.05;;;24.50;;
85640;SDS011;76065;47.182;27.506;2024-03-06T06:17:36;52.20;;;25.10;;
85640;SDS011;76065;47.182;27.506;2024-03-06T06:20:03;61.90;;;23.20;;
85640;SDS011;76065;47.182;27.506;2024-03-06T06:22:35;49.85;;;24.88;;
85640;SDS011;76065;47.182;27.506;2024-03-06T06:25:01;43.53;;;23.48;;
85640;SDS011;76065;47.182;27.506;2024-03-06T06:27:28;49.70;;;23.85;;
85640;SDS011;76065;47.182;27.506;2024-03-06T06:29:54;48.67;;;23.25;;
85640;SDS011;76065;47.182;27.506;2024-03-06T06:32:20;44.85;;;21.35;;
85640;SDS011;76065;47.182;27.506;2024-03-06T06:34:46;51.65;;;25.98;;
85640;SDS011;76065;47.182;27.506;2024-03-06T06:37:11;47.60;;;25.52;;
85640;SDS011;76065;47.182;27.506;2024-03-06T06:39:37;48.88;;;24.08;;
85640;SDS011;76065;47.182;27.506;2024-03-06T06:42:03;57.75;;;25.40;;
85640;SDS011;76065;47.182;27.506;2024-03-06T06:44:29;49.80;;;25.42;;
85640;SDS011;76065;47.182;27.506;2024-03-06T06:46:55;52.70;;;22.02;;
85640;SDS011;76065;47.182;27.506;2024-03-06T06:49:21;47.22;;;23.50;;
85640;SDS011;76065;47.182;27.506;2024-03-06T06:51:47;54.47;;;26.30;;
85640;SDS011;76065;47.182;27.506;2024-03-06T06:54:14;49.75;;;25.10;;
85640;SDS011;76065;47.182;27.506;2024-03-06T06:56:40;48.05;;;22.10;;
85640;SDS011;76065;47.182;27.506;2024-03-06T06:59:06;51.25;;;22.77;;
85640;SDS011;76065;47.182;27.506;2024-03-06T07:01:31;49.67;;;25.50;;
85640;SDS011;76065;47.182;27.506;2024-03-06T07:03:58;48.53;;;23.33;;
85640;SDS011;76065;47.182;27.506;2024-03-06T07:06:24;40.47;;;21.45;;
85640;SDS011;76065;47.182;27.506;2024-03-06T07:08:49;36.80;;;20.40;;
85640;SDS011;76065;47.182;27.506;2024-03-06T07:11:16;51.80;;;24.13;;
85640;SDS011;76065;47.182;27.506;2024-03-06T07:13:43;46.15;;;24.42;;
85640;SDS011;76065;47.182;27.506;2024-03-06T07:16:09;48.42;;;23.90;;
85640;SDS011;76065;47.182;27.506;2024-03-06T07:18:34;52.05;;;25.17;;
85640;SDS011;76065;47.182;27.506;2024-03-06T07:21:00;48.55;;;24.92;;
85640;SDS011;76065;47.182;27.506;2024-03-06T07:23:26;60.83;;;28.98;;
85640;SDS011;76065;47.182;27.506;2024-03-06T07:25:51;47.25;;;23.85;;
85640;SDS011;76065;47.182;27.506;2024-03-06T07:28:17;51.63;;;26.42;;
85640;SDS011;76065;47.182;27.506;2024-03-06T07:30:44;43.45;;;22.90;;
85640;SDS011;76065;47.182;27.506;2024-03-06T07:33:09;47.15;;;23.55;;
85640;SDS011;76065;47.182;27.506;2024-03-06T07:35:35;43.70;;;23.50;;
85640;SDS011;76065;47.182;27.506;2024-03-06T07:38:03;49.72;;;24.80;;
85640;SDS011;76065;47.182;27.506;2024-03-06T07:40:30;49.63;;;24.17;;
85640;SDS011;76065;47.182;27.506;2024-03-06T07:42:57;43.67;;;22.02;;
85640;SDS011;76065;47.182;27.506;2024-03-06T07:45:23;53.83;;;29.23;;
85640;SDS011;76065;47.182;27.506;2024-03-06T07:47:48;54.60;;;25.70;;
85640;SDS011;76065;47.182;27.506;2024-03-06T07:50:14;54.00;;;26.98;;
85640;SDS011;76065;47.182;27.506;2024-03-06T07:52:47;50.67;;;25.48;;
85640;SDS011;76065;47.182;27.506;2024-03-06T07:55:13;41.88;;;21.23;;
85640;SDS011;76065;47.182;27.506;2024-03-06T07:57:38;44.78;;;23.20;;
85640;SDS011;76065;47.182;27.506;2024-03-06T08:00:05;45.58;;;22.02;;
85640;SDS011;76065;47.182;27.506;2024-03-06T08:02:40;45.15;;;24.27;;
85640;SDS011;76065;47.182;27.506;2024-03-06T08:05:10;48.60;;;26.55;;
85640;SDS011;76065;47.182;27.506;2024-03-06T08:07:37;42.00;;;23.83;;
85640;SDS011;76065;47.182;27.506;2024-03-06T08:10:07;44.78;;;25.15;;
85640;SDS011;76065;47.182;27.506;2024-03-06T08:12:42;40.03;;;22.15;;
85640;SDS011;76065;47.182;27.506;2024-03-06T08:15:12;45.88;;;24.25;;
85640;SDS011;76065;47.182;27.506;2024-03-06T08:17:40;43.70;;;21.77;;
85640;SDS011;76065;47.182;27.506;2024-03-06T08:20:09;44.00;;;23.42;;
85640;SDS011;76065;47.182;27.506;2024-03-06T08:22:36;41.10;;;24.88;;
85640;SDS011;76065;47.182;27.506;2024-03-06T08:27:33;47.92;;;24.05;;
85640;SDS011;76065;47.182;27.506;2024-03-06T08:29:59;47.58;;;21.05;;
85640;SDS011;76065;47.182;27.506;2024-03-06T08:32:24;48.20;;;24.80;;
85640;SDS011;76065;47.182;27.506;2024-03-06T08:34:50;45.45;;;23.85;;
85640;SDS011;76065;47.182;27.506;2024-03-06T08:37:16;47.95;;;23.42;;
85640;SDS011;76065;47.182;27.506;2024-03-06T08:39:41;45.63;;;22.75;;
85640;SDS011;76065;47.182;27.506;2024-03-06T08:42:07;46.15;;;22.65;;
85640;SDS011;76065;47.182;27.506;2024-03-06T08:44:33;44.88;;;21.17;;
85640;SDS011;76065;47.182;27.506;2024-03-06T08:46:59;37.80;;;21.00;;
85640;SDS011;76065;47.182;27.506;2024-03-06T08:49:24;44.97;;;24.42;;
85640;SDS011;76065;47.182;27.506;2024-03-06T08:51:50;50.13;;;24.73;;
85640;SDS011;76065;47.182;27.506;2024-03-06T08:54:15;46.70;;;22.42;;
85640;SDS011;76065;47.182;27.506;2024-03-06T08:56:43;43.53;;;23.90;;
85640;SDS011;76065;47.182;27.506;2024-03-06T08:59:09;49.17;;;22.10;;
85640;SDS011;76065;47.182;27.506;2024-03-06T09:01:34;41.95;;;21.52;;
85640;SDS011;76065;47.182;27.506;2024-03-06T09:04:00;37.92;;;21.63;;
85640;SDS011;76065;47.182;27.506;2024-03-06T09:06:25;37.83;;;20.25;;
85640;SDS011;76065;47.182;27.506;2024-03-06T09:08:52;43.35;;;23.73;;
85640;SDS011;76065;47.182;27.506;2024-03-06T09:11:17;36.38;;;20.65;;
85640;SDS011;76065;47.182;27.506;2024-03-06T09:13:43;36.88;;;21.10;;
85640;SDS011;76065;47.182;27.506;2024-03-06T09:16:08;45.30;;;23.95;;
85640;SDS011;76065;47.182;27.506;2024-03-06T09:18:34;37.22;;;20.48;;
85640;SDS011;76065;47.182;27.506;2024-03-06T09:20:59;50.28;;;23.70;;
85640;SDS011;76065;47.182;27.506;2024-03-06T09:23:25;40.63;;;21.25;;
85640;SDS011;76065;47.182;27.506;2024-03-06T09:25:51;40.65;;;21.95;;
85640;SDS011;76065;47.182;27.506;2024-03-06T09:28:17;46.13;;;24.73;;
85640;SDS011;76065;47.182;27.506;2024-03-06T09:30:42;35.25;;;19.02;;
85640;SDS011;76065;47.182;27.506;2024-03-06T09:33:08;36.28;;;20.30;;
85640;SDS011;76065;47.182;27.506;2024-03-06T09:35:33;34.85;;;20.75;;
85640;SDS011;76065;47.182;27.506;2024-03-06T09:37:59;39.40;;;21.98;;
85640;SDS011;76065;47.182;27.506;2024-03-06T09:40:26;35.45;;;17.65;;
85640;SDS011;76065;47.182;27.506;2024-03-06T09:42:52;35.17;;;18.88;;
85640;SDS011;76065;47.182;27.506;2024-03-06T09:45:18;30.60;;;16.95;;
85640;SDS011;76065;47.182;27.506;2024-03-06T09:47:47;36.10;;;20.50;;
85640;SDS011;76065;47.182;27.506;2024-03-06T09:50:16;33.67;;;19.65;;
85640;SDS011;76065;47.182;27.506;2024-03-06T09:52:48;33.78;;;19.15;;
85640;SDS011;76065;47.182;27.506;2024-03-06T09:55:17;32.78;;;20.05;;
85640;SDS011;76065;47.182;27.506;2024-03-06T09:57:43;33.22;;;18.13;;
85640;SDS011;76065;47.182;27.506;2024-03-06T10:00:09;34.83;;;21.33;;
85640;SDS011;76065;47.182;27.506;2024-03-06T10:02:48;40.40;;;19.48;;
85640;SDS011;76065;47.182;27.506;2024-03-06T10:05:20;38.97;;;21.25;;
85640;SDS011;76065;47.182;27.506;2024-03-06T10:07:47;36.40;;;20.05;;
85640;SDS011;76065;47.182;27.506;2024-03-06T10:10:14;35.33;;;20.45;;
85640;SDS011;76065;47.182;27.506;2024-03-06T10:12:40;29.35;;;18.20;;
85640;SDS011;76065;47.182;27.506;2024-03-06T10:15:07;31.95;;;20.33;;
85640;SDS011;76065;47.182;27.506;2024-03-06T10:17:37;33.97;;;21.45;;
85640;SDS011;76065;47.182;27.506;2024-03-06T10:20:22;32.13;;;20.45;;
85640;SDS011;76065;47.182;27.506;2024-03-06T10:22:49;29.55;;;17.77;;
85640;SDS011;76065;47.182;27.506;2024-03-06T10:25:22;26.63;;;17.30;;
85640;SDS011;76065;47.182;27.506;2024-03-06T10:30:37;36.45;;;18.90;;
85640;SDS011;76065;47.182;27.506;2024-03-06T10:33:07;25.55;;;16.63;;
85640;SDS011;76065;47.182;27.506;2024-03-06T10:35:34;28.67;;;16.80;;
85640;SDS011;76065;47.182;27.506;2024-03-06T10:38:02;30.52;;;16.50;;
85640;SDS011;76065;47.182;27.506;2024-03-06T10:40:33;27.98;;;16.38;;
85640;SDS011;76065;47.182;27.506;2024-03-06T10:43:00;27.00;;;16.60;;
85640;SDS011;76065;47.182;27.506;2024-03-06T10:45:34;26.75;;;16.30;;
85640;SDS011;76065;47.182;27.506;2024-03-06T10:48:09;24.25;;;16.20;;
85640;SDS011;76065;47.182;27.506;2024-03-06T10:50:41;27.73;;;16.30;;
85640;SDS011;76065;47.182;27.506;2024-03-06T10:53:14;26.52;;;16.63;;
85640;SDS011;76065;47.182;27.506;2024-03-06T10:55:43;27.42;;;16.85;;
85640;SDS011;76065;47.182;27.506;2024-03-06T10:58:10;26.63;;;17.20;;
85640;SDS011;76065;47.182;27.506;2024-03-06T11:00:40;24.30;;;15.95;;
85640;SDS011;76065;47.182;27.506;2024-03-06T11:03:08;25.08;;;15.75;;
85640;SDS011;76065;47.182;27.506;2024-03-06T11:05:40;24.23;;;14.55;;
85640;SDS011;76065;47.182;27.506;2024-03-06T11:08:10;23.63;;;15.93;;
85640;SDS011;76065;47.182;27.506;2024-03-06T11:10:39;30.50;;;16.67;;
85640;SDS011;76065;47.182;27.506;2024-03-06T11:15:52;27.25;;;14.98;;
85640;SDS011;76065;47.182;27.506;2024-03-06T11:23:27;24.08;;;13.85;;
85640;SDS011;76065;47.182;27.506;2024-03-06T11:28:19;23.25;;;13.43;;
85640;SDS011;76065;47.182;27.506;2024-03-06T11:30:56;20.95;;;12.95;;
85640;SDS011;76065;47.182;27.506;2024-03-06T11:33:26;22.60;;;13.20;;
85640;SDS011;76065;47.182;27.506;2024-03-06T11:38:47;20.90;;;12.60;;
85640;SDS011;76065;47.182;27.506;2024-03-06T11:41:13;25.05;;;13.68;;
85640;SDS011;76065;47.182;27.506;2024-03-06T11:43:42;22.58;;;12.98;;
85640;SDS011;76065;47.182;27.506;2024-03-06T11:46:09;21.50;;;12.77;;
85640;SDS011;76065;47.182;27.506;2024-03-06T11:48:36;23.52;;;11.55;;
85640;SDS011;76065;47.182;27.506;2024-03-06T11:51:02;21.17;;;12.30;;
85640;SDS011;76065;47.182;27.506;2024-03-06T11:53:32;19.85;;;12.35;;
85640;SDS011;76065;47.182;27.506;2024-03-06T11:56:07;19.90;;;12.10;;
85640;SDS011;76065;47.182;27.506;2024-03-06T11:58:33;17.75;;;11.05;;
85640;SDS011;76065;47.182;27.506;2024-03-06T12:00:59;23.05;;;13.50;;
85640;SDS011;76065;47.182;27.506;2024-03-06T12:03:26;21.23;;;12.15;;
85640;SDS011;76065;47.182;27.506;2024-03-06T12:05:52;15.93;;;10.85;;
85640;SDS011;76065;47.182;27.506;2024-03-06T12:08:18;18.50;;;10.90;;
85640;SDS011;76065;47.182;27.506;2024-03-06T12:10:45;21.80;;;10.55;;
85640;SDS011;76065;47.182;27.506;2024-03-06T12:13:11;16.23;;;11.20;;
85640;SDS011;76065;47.182;27.506;2024-03-06T12:15:37;15.63;;;11.45;;
85640;SDS011;76065;47.182;27.506;2024-03-06T12:18:02;17.02;;;11.15;;
85640;SDS011;76065;47.182;27.506;2024-03-06T12:20:28;16.35;;;10.75;;
85640;SDS011;76065;47.182;27.506;2024-03-06T12:22:56;18.08;;;9.90;;
85640;SDS011;76065;47.182;27.506;2024-03-06T12:25:23;15.98;;;9.85;;
85640;SDS011;76065;47.182;27.506;2024-03-06T12:27:51;21.13;;;10.88;;
85640;SDS011;76065;47.182;27.506;2024-03-06T12:30:21;18.17;;;10.82;;
85640;SDS011;76065;47.182;27.506;2024-03-06T12:33:00;18.67;;;10.77;;
85640;SDS011;76065;47.182;27.506;2024-03-06T12:35:30;16.33;;;10.63;;
85640;SDS011;76065;47.182;27.506;2024-03-06T12:37:56;17.25;;;11.73;;
85640;SDS011;76065;47.182;27.506;2024-03-06T12:40:23;17.13;;;9.80;;
85640;SDS011;76065;47.182;27.506;2024-03-06T12:42:49;22.13;;;12.02;;
85640;SDS011;76065;47.182;27.506;2024-03-06T12:45:17;21.08;;;12.90;;
85640;SDS011;76065;47.182;27.506;2024-03-06T12:47:43;17.95;;;11.77;;
85640;SDS011;76065;47.182;27.506;2024-03-06T12:50:11;21.98;;;12.43;;
85640;SDS011;76065;47.182;27.506;2024-03-06T12:52:40;15.95;;;10.38;;
85640;SDS011;76065;47.182;27.506;2024-03-06T12:55:06;17.40;;;11.20;;
85640;SDS011;76065;47.182;27.506;2024-03-06T12:57:32;15.82;;;10.93;;
85640;SDS011;76065;47.182;27.506;2024-03-06T12:59:59;19.48;;;11.77;;
85640;SDS011;76065;47.182;27.506;2024-03-06T13:02:25;17.08;;;10.38;;
85640;SDS011;76065;47.182;27.506;2024-03-06T13:04:51;18.13;;;10.75;;
85640;SDS011;76065;47.182;27.506;2024-03-06T13:07:17;29.42;;;13.43;;
85640;SDS011;76065;47.182;27.506;2024-03-06T13:09:42;23.02;;;12.63;;
85640;SDS011;76065;47.182;27.506;2024-03-06T13:12:08;20.02;;;12.70;;
85640;SDS011;76065;47.182;27.506;2024-03-06T13:14:34;31.58;;;13.57;;
85640;SDS011;76065;47.182;27.506;2024-03-06T13:16:59;24.85;;;11.00;;
85640;SDS011;76065;47.182;27.506;2024-03-06T13:19:26;18.73;;;10.27;;
85640;SDS011;76065;47.182;27.506;2024-03-06T13:21:51;19.75;;;10.65;;
85640;SDS011;76065;47.182;27.506;2024-03-06T13:24:17;19.02;;;10.55;;
85640;SDS011;76065;47.182;27.506;2024-03-06T13:26:44;13.35;;;10.30;;
85640;SDS011;76065;47.182;27.506;2024-03-06T13:29:10;18.17;;;12.35;;
85640;SDS011;76065;47.182;27.506;2024-03-06T13:31:36;22.40;;;12.07;;
85640;SDS011;76065;47.182;27.506;2024-03-06T13:34:03;16.23;;;11.40;;
85640;SDS011;76065;47.182;27.506;2024-03-06T13:36:29;16.88;;;9.25;;
85640;SDS011;76065;47.182;27.506;2024-03-06T13:38:54;18.20;;;11.05;;
85640;SDS011;76065;47.182;27.506;2024-03-06T13:41:20;15.50;;;9.95;;
85640;SDS011;76065;47.182;27.506;2024-03-06T13:43:46;19.13;;;9.43;;
85640;SDS011;76065;47.182;27.506;2024-03-06T13:46:12;21.52;;;11.55;;
85640;SDS011;76065;47.182;27.506;2024-03-06T13:48:38;18.27;;;10.60;;
85640;SDS011;76065;47.182;27.506;2024-03-06T13:51:04;14.60;;;10.77;;
85640;SDS011;76065;47.182;27.506;2024-03-06T13:53:30;21.58;;;10.65;;
85640;SDS011;76065;47.182;27.506;2024-03-06T13:55:56;20.15;;;11.50;;
85640;SDS011;76065;47.182;27.506;2024-03-06T13:58:22;18.88;;;10.98;;
85640;SDS011;76065;47.182;27.506;2024-03-06T14:00:48;19.35;;;10.40;;
85640;SDS011;76065;47.182;27.506;2024-03-06T14:03:13;18.60;;;11.20;;
85640;SDS011;76065;47.182;27.506;2024-03-06T14:05:39;17.98;;;10.32;;
85640;SDS011;76065;47.182;27.506;2024-03-06T14:08:05;17.83;;;11.40;;
85640;SDS011;76065;47.182;27.506;2024-03-06T14:10:31;19.88;;;10.55;;
85640;SDS011;76065;47.182;27.506;2024-03-06T14:13:00;15.45;;;10.18;;
85640;SDS011;76065;47.182;27.506;2024-03-06T14:15:25;18.27;;;10.80;;
85640;SDS011;76065;47.182;27.506;2024-03-06T14:17:51;16.10;;;9.82;;
85640;SDS011;76065;47.182;27.506;2024-03-06T14:20:19;15.80;;;9.82;;
85640;SDS011;76065;47.182;27.506;2024-03-06T14:22:45;18.83;;;10.73;;
85640;SDS011;76065;47.182;27.506;2024-03-06T14:25:11;18.60;;;10.63;;
85640;SDS011;76065;47.182;27.506;2024-03-06T14:27:37;15.27;;;9.13;;